createdAt,value
2022-10-01T00:01:15.018Z,100222.28
2022-10-01T00:03:41.783Z,100228.13
2022-10-01T00:06:13.949Z,100215.69
2022-10-01T00:08:43.357Z,100210.88
2022-10-01T00:11:15.756Z,100190.56
2022-10-01T00:13:44.203Z,100176.91
2022-10-01T00:16:13.489Z,100163.97
2022-10-01T00:18:41.321Z,100178.69
2022-10-01T00:21:09.519Z,100181.06
2022-10-01T00:23:36.708Z,100174.00
2022-10-01T00:26:21.103Z,100131.81
2022-10-01T00:28:48.720Z,100164.41
2022-10-01T00:31:15.809Z,100171.47
2022-10-01T00:33:42.651Z,100164.34
2022-10-01T00:36:10.319Z,100146.00
2022-10-01T00:38:37.778Z,100088.06
2022-10-01T00:41:04.732Z,100137.09
2022-10-01T00:43:34.233Z,100105.84
2022-10-01T00:46:10.762Z,100079.66
2022-10-01T00:48:44.388Z,100089.91
2022-10-01T00:51:11.570Z,100065.94
2022-10-01T00:53:38.370Z,100078.22
2022-10-01T00:56:05.211Z,100091.59
2022-10-01T00:58:32.024Z,100092.00
2022-10-01T01:00:58.528Z,100082.56
2022-10-01T01:03:25.178Z,100107.69
2022-10-01T01:05:51.580Z,100094.84
2022-10-01T01:08:18.287Z,100100.31
2022-10-01T01:10:54.172Z,100062.03
2022-10-01T01:13:50.231Z,100046.03
2022-10-01T01:16:25.739Z,100013.25
2022-10-01T01:19:01.992Z,100037.06
2022-10-01T01:21:31.742Z,100071.84
2022-10-01T01:24:27.179Z,100074.41
2022-10-01T01:27:09.093Z,100060.31
2022-10-01T01:29:39.759Z,100059.25
2022-10-01T01:32:14.782Z,100053.44
2022-10-01T01:34:43.603Z,100028.38
2022-10-01T01:37:12.000Z,100053.75
2022-10-01T01:39:41.485Z,100029.56
2022-10-01T01:42:13.954Z,100041.66
2022-10-01T01:44:42.214Z,100029.41
2022-10-01T01:47:10.403Z,100032.38
2022-10-01T01:49:38.787Z,100034.28
2022-10-01T01:52:05.040Z,100025.84
2022-10-01T01:54:32.182Z,100005.78
2022-10-01T01:56:59.211Z,100023.75
2022-10-01T01:59:26.605Z,99996.94
2022-10-01T02:01:53.052Z,99996.00
2022-10-01T02:04:25.652Z,100009.28
2022-10-01T02:07:04.072Z,100015.72
2022-10-01T02:09:35.550Z,99991.09
2022-10-01T02:12:10.085Z,99970.00
2022-10-01T02:15:01.166Z,99962.81
2022-10-01T02:17:54.578Z,99992.91
2022-10-01T02:20:30.146Z,99986.06
2022-10-01T02:23:00.631Z,100001.38
2022-10-01T02:25:31.546Z,100006.19
2022-10-01T02:28:03.749Z,99990.19
2022-10-01T02:30:31.839Z,99983.47
2022-10-01T02:32:59.959Z,99974.94
2022-10-01T02:35:28.427Z,99992.56
2022-10-01T02:37:57.591Z,99974.31
2022-10-01T02:40:28.316Z,99972.09
2022-10-01T02:42:57.817Z,99982.25
2022-10-01T02:45:26.107Z,99979.56
2022-10-01T02:48:02.319Z,99983.19
2022-10-01T02:50:35.054Z,99981.78
2022-10-01T02:53:07.195Z,99991.97
2022-10-01T02:55:36.726Z,99986.78
2022-10-01T02:58:03.236Z,99970.94
2022-10-01T03:00:30.045Z,99991.47
2022-10-01T03:02:56.425Z,99950.59
2022-10-01T03:05:23.122Z,99956.00
2022-10-01T03:07:49.552Z,99977.91
2022-10-01T03:10:16.460Z,99974.28
2022-10-01T03:12:46.480Z,99955.09
2022-10-01T03:15:14.542Z,99939.28
2022-10-01T03:17:41.013Z,99944.38
2022-10-01T03:20:08.222Z,99949.50
2022-10-01T03:22:34.593Z,99943.56
2022-10-01T03:25:00.974Z,99950.41
2022-10-01T03:27:27.369Z,99914.53
2022-10-01T03:29:53.748Z,99939.34
2022-10-01T03:32:20.474Z,99935.97
2022-10-01T03:34:47.166Z,99942.16
2022-10-01T03:37:13.594Z,99914.59
2022-10-01T03:39:40.113Z,99913.81
2022-10-01T03:42:07.035Z,99935.78
2022-10-01T03:44:33.912Z,99941.72
2022-10-01T03:47:00.494Z,99955.94
2022-10-01T03:49:27.280Z,99926.59
2022-10-01T03:51:54.090Z,99958.94
2022-10-01T03:54:21.563Z,99955.16
2022-10-01T03:56:48.766Z,99962.59
2022-10-01T03:59:15.128Z,99946.75
2022-10-01T04:01:41.495Z,99934.91
2022-10-01T04:04:07.965Z,99943.53
2022-10-01T04:06:34.333Z,99935.91
2022-10-01T04:09:00.865Z,99950.75
2022-10-01T04:11:27.840Z,99960.22
2022-10-01T04:13:54.253Z,99956.38
2022-10-01T04:16:20.725Z,99976.63
2022-10-01T04:18:47.179Z,99982.03
2022-10-01T04:21:15.467Z,99966.78
2022-10-01T04:23:42.105Z,99982.41
2022-10-01T04:26:08.575Z,99975.41
2022-10-01T04:28:35.124Z,99980.59
2022-10-01T04:31:20.214Z,99975.97
2022-10-01T04:33:46.742Z,100007.84
2022-10-01T04:36:13.147Z,99999.81
2022-10-01T04:38:39.492Z,100003.63
2022-10-01T04:41:06.245Z,100015.63
2022-10-01T04:43:33.043Z,100025.91
2022-10-01T04:45:59.536Z,100024.69
2022-10-01T04:48:25.934Z,100026.09
2022-10-01T04:50:52.316Z,100022.66
2022-10-01T04:53:18.799Z,100023.66
2022-10-01T04:55:46.529Z,100040.88
2022-10-01T04:58:13.020Z,100033.91
2022-10-01T05:00:39.432Z,100047.34
2022-10-01T05:03:05.917Z,100045.53
2022-10-01T05:05:34.767Z,100052.72
2022-10-01T05:08:01.834Z,100033.13
2022-10-01T05:10:28.302Z,100041.91
2022-10-01T05:12:54.766Z,100045.75
2022-10-01T05:15:21.230Z,100056.97
2022-10-01T05:17:47.584Z,100062.53
2022-10-01T05:20:19.357Z,100065.97
2022-10-01T05:22:46.842Z,100067.41
2022-10-01T05:25:13.305Z,100080.41
2022-10-01T05:27:41.037Z,100069.16
2022-10-01T05:30:09.449Z,100084.97
2022-10-01T05:32:36.116Z,100085.19
2022-10-01T05:35:03.495Z,100088.59
2022-10-01T05:37:29.892Z,100086.97
2022-10-01T05:39:56.258Z,100091.38
2022-10-01T05:42:22.629Z,100101.97
2022-10-01T05:44:49.960Z,100116.00
2022-10-01T05:47:20.541Z,100108.81
2022-10-01T05:49:46.914Z,100115.00
2022-10-01T05:52:15.480Z,100116.81
2022-10-01T05:54:41.858Z,100119.19
2022-10-01T05:57:08.318Z,100119.63
2022-10-01T05:59:35.317Z,100122.59
2022-10-01T06:02:02.084Z,100119.81
2022-10-01T06:04:28.547Z,100123.38
2022-10-01T06:06:56.020Z,100127.59
2022-10-01T06:09:22.472Z,100125.56
2022-10-01T06:11:49.227Z,100130.16
2022-10-01T06:14:16.224Z,100127.75
2022-10-01T06:16:42.760Z,100131.38
2022-10-01T06:19:09.165Z,100131.19
2022-10-01T06:21:36.072Z,100129.19
2022-10-01T06:24:02.774Z,100145.63
2022-10-01T06:26:29.225Z,100144.84
2022-10-01T06:28:56.547Z,100135.22
2022-10-01T06:31:23.212Z,100125.41
2022-10-01T06:33:49.673Z,100135.28
2022-10-01T06:36:16.031Z,100132.91
2022-10-01T06:38:42.986Z,100131.09
2022-10-01T06:41:09.905Z,100139.53
2022-10-01T06:43:36.259Z,100149.34
2022-10-01T06:46:03.946Z,100153.75
2022-10-01T06:48:31.308Z,100162.16
2022-10-01T06:50:58.313Z,100155.97
2022-10-01T06:53:25.262Z,100163.19
2022-10-01T06:55:51.644Z,100162.81
2022-10-01T06:58:20.945Z,100157.63
2022-10-01T07:00:48.424Z,100169.09
2022-10-01T07:03:17.230Z,100159.53
2022-10-01T07:05:43.668Z,100159.31
2022-10-01T07:08:10.401Z,100169.97
2022-10-01T07:10:38.034Z,100175.22
2022-10-01T07:13:16.496Z,100195.84
2022-10-01T07:15:42.947Z,100212.50
2022-10-01T07:18:10.093Z,100225.72
2022-10-01T07:20:39.673Z,100237.56
2022-10-01T07:23:08.588Z,100236.75
2022-10-01T07:25:35.038Z,100223.72
2022-10-01T07:28:04.532Z,100208.47
2022-10-01T07:30:31.819Z,100215.50
2022-10-01T07:32:58.566Z,100211.88
2022-10-01T07:35:26.126Z,100214.50
2022-10-01T07:37:54.924Z,100222.50
2022-10-01T07:40:21.683Z,100211.31
2022-10-01T07:42:55.672Z,100221.16
2022-10-01T07:45:23.034Z,100219.75
2022-10-01T07:47:54.244Z,100223.75
2022-10-01T07:50:20.884Z,100227.19
2022-10-01T07:52:51.681Z,100213.34
2022-10-01T07:55:18.568Z,100227.78
2022-10-01T07:57:53.037Z,100229.78
2022-10-01T08:00:19.981Z,100228.59
2022-10-01T08:02:47.785Z,100238.22
2022-10-01T08:05:20.286Z,100230.19
2022-10-01T08:07:47.428Z,100234.53
2022-10-01T08:10:15.173Z,100246.94
2022-10-01T08:12:44.402Z,100242.53
2022-10-01T08:15:12.829Z,100245.16
2022-10-01T08:17:39.426Z,100254.03
2022-10-01T08:20:07.798Z,100258.84
2022-10-01T08:22:36.549Z,100264.03
2022-10-01T08:25:05.866Z,100266.84
2022-10-01T08:27:32.284Z,100266.25
2022-10-01T08:29:58.727Z,100263.44
2022-10-01T08:32:27.377Z,100271.84
2022-10-01T08:34:56.748Z,100270.44
2022-10-01T08:37:27.141Z,100267.81
2022-10-01T08:39:54.568Z,100270.69
2022-10-01T08:42:42.264Z,100287.75
2022-10-01T08:45:14.950Z,100287.72
2022-10-01T08:47:45.780Z,100290.94
2022-10-01T08:50:19.376Z,100301.56
2022-10-01T08:52:55.657Z,100305.81
2022-10-01T08:55:24.772Z,100301.97
2022-10-01T08:58:00.668Z,100294.66
2022-10-01T09:00:26.935Z,100298.03
2022-10-01T09:03:04.018Z,100297.47
2022-10-01T09:05:38.363Z,100299.34
2022-10-01T09:08:46.580Z,100299.66
2022-10-01T09:11:36.959Z,100308.50
2022-10-01T09:14:28.387Z,100316.75
2022-10-01T09:17:05.432Z,100312.06
2022-10-01T09:19:57.476Z,100322.84
2022-10-01T09:23:02.933Z,100323.78
2022-10-01T09:25:29.936Z,100319.88
2022-10-01T09:28:15.800Z,100326.13
2022-10-01T09:30:51.190Z,100322.16
2022-10-01T09:33:20.290Z,100323.81
2022-10-01T09:36:07.791Z,100333.88
2022-10-01T09:38:38.627Z,100334.13
2022-10-01T09:41:10.769Z,100331.81
2022-10-01T09:43:42.513Z,100333.47
2022-10-01T09:46:13.470Z,100335.75
2022-10-01T09:48:59.356Z,100333.25
2022-10-01T09:51:33.989Z,100363.19
2022-10-01T09:54:09.302Z,100357.97
2022-10-01T09:56:48.039Z,100365.13
2022-10-01T09:59:19.633Z,100374.28
2022-10-01T10:01:50.352Z,100371.91
2022-10-01T10:04:23.536Z,100368.38
2022-10-01T10:07:00.211Z,100352.50
2022-10-01T10:09:30.634Z,100380.56
2022-10-01T10:11:58.806Z,100355.13
2022-10-01T10:14:49.039Z,100388.19
2022-10-01T10:17:22.460Z,100371.44
2022-10-01T10:19:51.805Z,100378.16
2022-10-01T10:22:26.505Z,100396.97
2022-10-01T10:24:54.302Z,100388.34
2022-10-01T10:27:26.659Z,100420.28
2022-10-01T10:30:16.261Z,100430.38
2022-10-01T10:32:43.886Z,100432.81
2022-10-01T10:35:13.674Z,100430.34
2022-10-01T10:37:47.321Z,100439.16
2022-10-01T10:40:20.247Z,100437.28
2022-10-01T10:42:48.900Z,100450.72
2022-10-01T10:45:17.645Z,100434.69
2022-10-01T10:47:45.835Z,100423.66
2022-10-01T10:50:29.803Z,100451.13
2022-10-01T10:52:57.020Z,100440.28
2022-10-01T10:55:25.158Z,100457.72
2022-10-01T10:57:57.268Z,100454.00
2022-10-01T11:00:25.882Z,100465.69
2022-10-01T11:02:56.807Z,100458.66
2022-10-01T11:05:25.973Z,100449.34
2022-10-01T11:07:58.526Z,100431.78
2022-10-01T11:10:38.321Z,100454.06
2022-10-01T11:13:19.690Z,100498.97
2022-10-01T11:15:58.423Z,100500.06
2022-10-01T11:19:12.853Z,100506.47
2022-10-01T11:21:46.705Z,100514.56
2022-10-01T11:24:47.353Z,100512.41
2022-10-01T11:28:10.626Z,100486.47
2022-10-01T11:31:01.857Z,100536.97
2022-10-01T11:33:38.713Z,100534.16
2022-10-01T11:36:10.734Z,100535.88
2022-10-01T11:38:46.796Z,100540.97
2022-10-01T11:41:18.974Z,100537.78
2022-10-01T11:43:56.381Z,100532.50
2022-10-01T11:46:29.429Z,100549.72
2022-10-01T11:49:18.869Z,100544.41
2022-10-01T11:51:50.027Z,100537.44
2022-10-01T11:54:20.928Z,100561.75
2022-10-01T11:57:11.954Z,100546.63
2022-10-01T11:59:55.518Z,100558.03
2022-10-01T12:02:49.888Z,100499.81
2022-10-01T12:05:17.282Z,100589.66
2022-10-01T12:07:49.478Z,100586.00
2022-10-01T12:10:38.753Z,100536.22
2022-10-01T12:13:24.000Z,100593.81
2022-10-01T12:15:58.019Z,100587.66
2022-10-01T12:18:27.375Z,100599.53
2022-10-01T12:20:56.214Z,100552.00
2022-10-01T12:23:27.294Z,100594.91
2022-10-01T12:26:22.165Z,100590.41
2022-10-01T12:28:53.596Z,100617.81
2022-10-01T12:31:24.872Z,100596.91
2022-10-01T12:34:16.322Z,100632.00
2022-10-01T12:36:55.768Z,100628.53
2022-10-01T12:39:51.428Z,100626.09
2022-10-01T12:42:39.636Z,100624.59
2022-10-01T12:45:24.023Z,100630.53
2022-10-01T12:47:58.509Z,100641.84
2022-10-01T12:50:36.636Z,100655.13
2022-10-01T12:53:35.461Z,100657.41
2022-10-01T12:56:14.016Z,100659.84
2022-10-01T12:58:59.480Z,100636.47
2022-10-01T13:01:29.592Z,100619.63
2022-10-01T13:04:28.032Z,100654.44
2022-10-01T13:07:16.091Z,100640.78
2022-10-01T13:09:52.171Z,100646.63
2022-10-01T13:12:35.719Z,100620.31
2022-10-01T13:15:03.109Z,100641.44
2022-10-01T13:17:43.521Z,100638.59
2022-10-01T13:20:22.131Z,100664.00
2022-10-01T13:22:48.511Z,100680.47
2022-10-01T13:25:26.652Z,100687.00
2022-10-01T13:28:02.038Z,100681.28
2022-10-01T13:30:45.144Z,100657.75
2022-10-01T13:33:28.833Z,100700.19
2022-10-01T13:35:58.744Z,100716.16
2022-10-01T13:38:40.158Z,100699.72
2022-10-01T13:41:17.068Z,100674.28
2022-10-01T13:43:58.186Z,100679.50
2022-10-01T13:46:33.355Z,100696.84
2022-10-01T13:49:21.540Z,100705.47
2022-10-01T13:51:47.944Z,100697.22
2022-10-01T13:54:24.213Z,100716.41
2022-10-01T13:56:50.580Z,100699.63
2022-10-01T13:59:35.582Z,100727.47
2022-10-01T14:02:03.099Z,100672.56
2022-10-01T14:04:34.271Z,100737.03
2022-10-01T14:07:14.328Z,100731.41
2022-10-01T14:09:44.995Z,100725.34
2022-10-01T14:12:37.752Z,100752.28
2022-10-01T14:15:42.684Z,100759.44
2022-10-01T14:18:18.653Z,100752.03
2022-10-01T14:21:16.307Z,100781.09
2022-10-01T14:24:00.908Z,100793.13
2022-10-01T14:26:33.161Z,100773.56
2022-10-01T14:29:39.342Z,100798.94
2022-10-01T14:32:20.878Z,100777.88
2022-10-01T14:35:26.029Z,100804.56
2022-10-01T14:37:59.430Z,100779.22
2022-10-01T14:40:26.488Z,100795.34
2022-10-01T14:42:59.194Z,100754.88
2022-10-01T14:45:25.629Z,100742.69
2022-10-01T14:48:06.327Z,100799.63
2022-10-01T14:50:34.265Z,100802.97
2022-10-01T14:53:01.470Z,100769.09
2022-10-01T14:55:27.977Z,100776.34
2022-10-01T14:57:55.667Z,100789.75
2022-10-01T15:00:23.209Z,100806.13
2022-10-01T15:02:50.651Z,100790.09
2022-10-01T15:05:37.387Z,100761.38
2022-10-01T15:08:23.366Z,100817.88
2022-10-01T15:11:37.443Z,100823.13
2022-10-01T15:14:08.294Z,100824.44
2022-10-01T15:16:35.202Z,100783.75
2022-10-01T15:19:06.748Z,100789.41
2022-10-01T15:21:47.621Z,100834.19
2022-10-01T15:24:41.154Z,100845.09
2022-10-01T15:27:13.609Z,100828.03
2022-10-01T15:29:43.695Z,100816.84
2022-10-01T15:32:15.145Z,100788.28
2022-10-01T15:34:47.778Z,100816.72
2022-10-01T15:37:33.711Z,100801.88
2022-10-01T15:40:01.201Z,100807.84
2022-10-01T15:42:31.137Z,100838.53
2022-10-01T15:45:06.689Z,100877.19
2022-10-01T15:47:37.524Z,100851.06
2022-10-01T15:50:08.820Z,100874.19
2022-10-01T15:52:50.796Z,100890.72
2022-10-01T15:55:37.444Z,100894.44
2022-10-01T15:58:15.110Z,100866.13
2022-10-01T16:00:43.844Z,100895.94
2022-10-01T16:03:19.586Z,100900.44
2022-10-01T16:05:46.452Z,100899.91
2022-10-01T16:08:21.345Z,100896.69
2022-10-01T16:10:49.170Z,100898.91
2022-10-01T16:13:34.051Z,100890.25
2022-10-01T16:16:12.885Z,100910.19
2022-10-01T16:18:43.099Z,100878.13
2022-10-01T16:21:11.020Z,100921.25
2022-10-01T16:23:44.032Z,100927.06
2022-10-01T16:26:34.263Z,100931.00
2022-10-01T16:29:24.086Z,100913.03
2022-10-01T16:31:51.134Z,100922.94
2022-10-01T16:34:19.404Z,100938.06
2022-10-01T16:36:46.332Z,100915.25
2022-10-01T16:39:15.734Z,100845.28
2022-10-01T16:41:44.671Z,100817.22
2022-10-01T16:44:15.714Z,100932.16
2022-10-01T16:47:10.491Z,100949.44
2022-10-01T16:49:41.819Z,100875.22
2022-10-01T16:52:12.297Z,100880.03
2022-10-01T16:54:39.264Z,100897.28
2022-10-01T16:57:05.671Z,100896.75
2022-10-01T16:59:33.684Z,100958.25
2022-10-01T17:02:02.118Z,100973.47
2022-10-01T17:04:34.065Z,100985.31
2022-10-01T17:07:00.695Z,100961.47
2022-10-01T17:09:27.085Z,100987.75
2022-10-01T17:11:53.885Z,100960.28
2022-10-01T17:14:21.229Z,100992.28
2022-10-01T17:16:48.512Z,100987.72
2022-10-01T17:19:15.023Z,100908.66
2022-10-01T17:21:41.878Z,100981.28
2022-10-01T17:24:10.803Z,100994.38
2022-10-01T17:26:41.625Z,100965.84
2022-10-01T17:29:09.453Z,101001.75
2022-10-01T17:31:37.635Z,100939.69
2022-10-01T17:34:04.785Z,100968.66
2022-10-01T17:36:31.744Z,101004.13
2022-10-01T17:38:58.718Z,101014.28
2022-10-01T17:41:25.355Z,101006.19
2022-10-01T17:43:51.749Z,100985.63
2022-10-01T17:46:18.582Z,100959.56
2022-10-01T17:48:48.562Z,101010.53
2022-10-01T17:51:15.686Z,100958.19
2022-10-01T17:53:42.916Z,101039.41
2022-10-01T17:56:13.168Z,101036.84
2022-10-01T17:58:45.230Z,100970.03
2022-10-01T18:01:19.489Z,101000.63
2022-10-01T18:03:46.100Z,100991.59
2022-10-01T18:06:15.112Z,101047.28
2022-10-01T18:08:54.667Z,101047.53
2022-10-01T18:11:22.883Z,101018.91
2022-10-01T18:13:50.762Z,101034.50
2022-10-01T18:16:19.186Z,101024.75
2022-10-01T18:19:51.786Z,101048.16
2022-10-01T18:21:32.794Z,101063.06
2022-10-01T18:24:03.995Z,101079.25
2022-10-01T18:26:31.161Z,101065.09
2022-10-01T18:28:57.520Z,101076.63
2022-10-01T18:31:28.385Z,101096.78
2022-10-01T18:33:57.548Z,101099.09
2022-10-01T18:36:51.668Z,101107.78
2022-10-01T18:39:28.966Z,101102.75
2022-10-01T18:41:56.475Z,101099.22
2022-10-01T18:44:23.241Z,101066.94
2022-10-01T18:46:55.156Z,101111.81
2022-10-01T18:49:51.545Z,101121.31
2022-10-01T18:52:27.583Z,101128.66
2022-10-01T18:55:25.337Z,101129.31
2022-10-01T18:58:11.061Z,101131.41
2022-10-01T19:00:52.330Z,101113.91
2022-10-01T19:03:35.215Z,101120.75
2022-10-01T19:06:28.170Z,101142.22
2022-10-01T19:09:08.327Z,101127.13
2022-10-01T19:11:54.145Z,101157.97
2022-10-01T19:14:45.016Z,101153.47
2022-10-01T19:17:31.316Z,101159.50
2022-10-01T19:20:29.997Z,101147.38
2022-10-01T19:23:11.240Z,101145.78
2022-10-01T19:25:49.637Z,101149.16
2022-10-01T19:28:39.732Z,101165.25
2022-10-01T19:31:20.863Z,101161.84
2022-10-01T19:33:51.684Z,101150.28
2022-10-01T19:36:29.525Z,101140.34
2022-10-01T19:39:01.096Z,101151.50
2022-10-01T19:41:36.141Z,101172.53
2022-10-01T19:44:04.762Z,101171.50
2022-10-01T19:46:36.075Z,101178.28
2022-10-01T19:49:08.847Z,101175.38
2022-10-01T19:51:40.038Z,101143.72
2022-10-01T19:54:13.522Z,101159.00
2022-10-01T19:56:40.633Z,101159.47
2022-10-01T19:59:11.190Z,101125.56
2022-10-01T20:01:40.894Z,101186.41
2022-10-01T20:04:14.754Z,101188.81
2022-10-01T20:06:44.423Z,101144.22
2022-10-01T20:09:18.649Z,101196.28
2022-10-01T20:12:30.884Z,101202.31
2022-10-01T20:15:09.783Z,101212.44
2022-10-01T20:18:04.053Z,101206.88
2022-10-01T20:21:02.929Z,101208.50
2022-10-01T20:23:33.229Z,101215.00
2022-10-01T20:26:18.756Z,101211.59
2022-10-01T20:29:14.037Z,101212.91
2022-10-01T20:32:14.464Z,101213.88
2022-10-01T20:35:00.460Z,101208.25
2022-10-01T20:37:34.794Z,101226.97
2022-10-01T20:40:10.466Z,101228.41
2022-10-01T20:42:40.210Z,101200.16
2022-10-01T20:45:14.865Z,101220.91
2022-10-01T20:47:49.174Z,101218.84
2022-10-01T20:50:32.346Z,101217.88
2022-10-01T20:53:22.405Z,101213.34
2022-10-01T20:55:52.774Z,101205.66
2022-10-01T20:58:29.829Z,101210.41
2022-10-01T21:01:01.875Z,101239.31
2022-10-01T21:03:37.642Z,101234.28
2022-10-01T21:06:05.451Z,101236.06
2022-10-01T21:08:44.649Z,101210.94
2022-10-01T21:11:22.423Z,101232.50
2022-10-01T21:14:00.801Z,101240.94
2022-10-01T21:16:57.871Z,101238.88
2022-10-01T21:19:39.466Z,101236.75
2022-10-01T21:22:21.907Z,101215.50
2022-10-01T21:24:56.692Z,101244.56
2022-10-01T21:28:02.097Z,101251.91
2022-10-01T21:30:41.657Z,101223.47
2022-10-01T21:33:53.241Z,101247.84
2022-10-01T21:36:32.899Z,101217.78
2022-10-01T21:39:27.477Z,101248.50
2022-10-01T21:42:17.065Z,101243.94
2022-10-01T21:45:02.205Z,101247.38
2022-10-01T21:47:28.475Z,101241.81
2022-10-01T21:50:19.634Z,101242.50
2022-10-01T21:53:06.825Z,101243.44
2022-10-01T21:55:55.610Z,101248.00
2022-10-01T21:58:36.220Z,101238.09
2022-10-01T22:01:15.927Z,101251.59
2022-10-01T22:04:08.640Z,101257.94
2022-10-01T22:06:59.191Z,101263.31
2022-10-01T22:10:04.449Z,101260.03
2022-10-01T22:12:33.483Z,101266.50
2022-10-01T22:15:00.798Z,101266.50
2022-10-01T22:17:33.124Z,101272.03
2022-10-01T22:20:02.234Z,101276.25
2022-10-01T22:22:30.996Z,101272.66
2022-10-01T22:24:59.488Z,101290.84
2022-10-01T22:27:32.074Z,101287.78
2022-10-01T22:30:24.282Z,101246.63
2022-10-01T22:37:02.081Z,101300.56
2022-10-01T22:40:13.795Z,101255.06
2022-10-01T22:43:04.580Z,101249.84
2022-10-01T22:49:49.431Z,101253.94
2022-10-01T22:52:40.099Z,101310.84
2022-10-01T22:55:24.592Z,101293.75
2022-10-01T22:57:51.273Z,101302.03
2022-10-01T23:04:06.665Z,101260.88
2022-10-01T23:07:12.619Z,101288.56
2022-10-01T23:13:47.522Z,101310.59
2022-10-01T23:16:38.308Z,101284.31
2022-10-01T23:19:55.057Z,101302.00
2022-10-01T23:22:46.444Z,101279.75
2022-10-01T23:25:24.538Z,101301.69
2022-10-01T23:28:06.226Z,101318.91
2022-10-01T23:30:51.740Z,101282.72
2022-10-01T23:33:56.630Z,101278.16
2022-10-01T23:36:34.236Z,101326.72
2022-10-01T23:39:28.919Z,101325.94
2022-10-01T23:42:05.608Z,101258.53
2022-10-01T23:44:55.102Z,101269.38
2022-10-01T23:47:58.208Z,101264.00
2022-10-01T23:50:35.463Z,101326.47
2022-10-01T23:53:13.670Z,101288.72
2022-10-01T23:56:30.123Z,101308.66
2022-10-01T23:59:18.998Z,101381.31
